Time;durP1;ratioP1;P1;durP2;ratioP2;P2;SDS_P1;SDS_P2;PMS_P1;PMS_P2;Temp;Humidity;BMP_temperature;BMP_pressure;BME280_temperature;BME280_humidity;BME280_pressure;Samples;Min_cycle;Max_cycle;Signal;HPM_P1;HPM_P2
2023/03/05 00:01:36;;;;;;;4.35;1.55;;;3.30;99.90;;;;;;4337107;28;10001282;-75
2023/03/05 00:04:14;;;;;;;6.72;1.40;;;3.30;99.90;;;;;;5016815;28;20593;-75
2023/03/05 00:06:43;;;;;;;5.65;1.20;;;3.30;99.90;;;;;;5012620;28;20038;-75
2023/03/05 00:09:17;;;;;;;9.98;1.77;;;3.30;99.90;;;;;;5011871;28;20070;-75
2023/03/05 00:11:45;;;;;;;6.13;1.67;;;3.30;99.90;;;;;;5016256;28;20045;-75
2023/03/05 00:14:21;;;;;;;13.52;2.30;;;3.20;99.90;;;;;;5011782;28;20120;-74
2023/03/05 00:16:49;;;;;;;8.05;2.13;;;3.30;99.90;;;;;;5011398;28;20033;-75
2023/03/05 00:19:22;;;;;;;5.07;1.63;;;3.30;99.90;;;;;;5009836;28;20033;-75
2023/03/05 00:21:50;;;;;;;8.50;2.20;;;;;;;;;;5021317;28;20046;-75
2023/03/05 00:24:21;;;;;;;6.03;1.50;;;3.20;99.90;;;;;;5021059;28;20037;-75
2023/03/05 00:26:48;;;;;;;9.10;1.77;;;3.20;99.90;;;;;;5014673;28;20048;-75
2023/03/05 00:29:23;;;;;;;9.00;2.40;;;3.10;99.90;;;;;;5011561;28;20052;-75
2023/03/05 00:31:52;;;;;;;8.38;2.08;;;3.10;99.90;;;;;;5014850;28;20022;-75
2023/03/05 00:34:28;;;;;;;7.22;2.10;;;3.10;99.90;;;;;;5029205;28;20041;-75
2023/03/05 00:36:57;;;;;;;8.90;1.90;;;3.10;99.90;;;;;;5048187;28;20033;-75
2023/03/05 00:39:26;;;;;;;7.75;1.90;;;3.10;99.90;;;;;;5048932;28;20032;-76
2023/03/05 00:41:54;;;;;;;6.38;2.22;;;3.10;99.90;;;;;;5045189;28;20056;-76
2023/03/05 00:44:22;;;;;;;10.35;2.60;;;3.10;99.90;;;;;;5042184;28;20653;-75
2023/03/05 00:46:54;;;;;;;7.30;2.03;;;3.00;99.90;;;;;;5045881;28;20493;-75
2023/03/05 00:49:29;;;;;;;12.35;2.75;;;3.00;99.90;;;;;;5050738;28;20401;-75
2023/03/05 00:51:56;;;;;;;10.05;2.50;;;3.00;99.90;;;;;;5045576;28;20458;-76
2023/03/05 00:54:30;;;;;;;9.60;2.35;;;3.00;99.90;;;;;;5050447;28;20052;-75
2023/03/05 00:56:57;;;;;;;7.78;2.85;;;3.00;99.90;;;;;;5051610;28;20056;-75
2023/03/05 00:59:29;;;;;;;14.15;3.10;;;3.00;99.90;;;;;;5048883;28;20552;-75
2023/03/05 01:01:57;;;;;;;10.38;3.90;;;3.00;99.90;;;;;;5042484;28;20438;-75
2023/03/05 01:04:30;;;;;;;9.77;2.67;;;3.00;99.90;;;;;;5049164;28;20036;-75
2023/03/05 01:06:59;;;;;;;15.85;5.00;;;3.00;99.90;;;;;;5046529;28;20476;-75
2023/03/05 01:09:29;;;;;;;12.40;3.38;;;3.00;99.90;;;;;;5050026;28;20035;-74
2023/03/05 01:11:59;;;;;;;9.55;3.38;;;3.10;99.90;;;;;;5039092;28;20485;-75
2023/03/05 01:14:34;;;;;;;11.77;4.03;;;3.10;99.90;;;;;;5043618;28;20428;-75
2023/03/05 01:17:02;;;;;;;10.40;2.95;;;3.00;99.90;;;;;;5051451;28;20032;-75
2023/03/05 01:19:36;;;;;;;8.07;2.70;;;3.00;99.90;;;;;;5048464;28;20084;-75
2023/03/05 01:22:02;;;;;;;9.40;2.33;;;3.00;99.90;;;;;;5041353;28;20045;-76
2023/03/05 01:24:39;;;;;;;8.85;2.10;;;3.00;99.90;;;;;;5044123;28;20108;-75
2023/03/05 01:27:09;;;;;;;6.25;2.17;;;3.00;99.90;;;;;;5047115;28;20589;-75
2023/03/05 01:29:39;;;;;;;6.78;2.00;;;3.00;99.90;;;;;;5048151;28;20045;-75
2023/03/05 01:32:08;;;;;;;9.48;2.33;;;3.00;99.90;;;;;;5048079;28;20104;-75
2023/03/05 01:34:42;;;;;;;6.93;1.98;;;3.00;99.90;;;;;;5046558;28;20036;-75
2023/03/05 01:37:15;;;;;;;13.30;2.60;;;2.90;99.90;;;;;;5037486;28;20111;-75
2023/03/05 01:39:49;;;;;;;6.68;2.40;;;2.90;99.90;;;;;;5046061;28;20037;-75
2023/03/05 01:42:21;;;;;;;8.07;2.60;;;3.00;99.90;;;;;;5043049;28;20025;-75
2023/03/05 01:45:06;;;;;;;8.77;2.42;;;3.00;99.90;;;;;;5031180;28;20498;-75
2023/03/05 01:47:33;;;;;;;6.95;1.80;;;2.90;99.90;;;;;;5042289;28;20130;-75
2023/03/05 01:50:10;;;;;;;5.65;1.98;;;2.90;99.90;;;;;;5045287;28;20028;-75
2023/03/05 01:52:40;;;;;;;10.02;2.30;;;2.90;99.90;;;;;;5037840;28;20036;-75
2023/03/05 01:55:17;;;;;;;13.50;2.85;;;;;;;;;;5048498;28;20112;-75
2023/03/05 01:58:13;;;;;;;5.63;2.13;;;3.00;99.90;;;;;;5035505;28;20033;-74
2023/03/05 02:00:40;;;;;;;8.75;2.25;;;;;;;;;;5031656;28;20018;-75
2023/03/05 02:03:15;;;;;;;9.32;2.55;;;2.90;99.90;;;;;;5045394;28;20721;-76
2023/03/05 02:05:47;;;;;;;5.93;1.95;;;2.90;99.90;;;;;;5047641;28;20041;-76
2023/03/05 02:08:25;;;;;;;10.23;2.53;;;2.80;99.90;;;;;;5048427;28;20397;-75
2023/03/05 02:11:00;;;;;;;8.50;2.38;;;2.80;99.90;;;;;;5039886;28;20040;-76
2023/03/05 02:13:39;;;;;;;3.95;1.90;;;2.80;99.90;;;;;;5056555;28;20485;-76
2023/03/05 02:16:07;;;;;;;7.82;1.95;;;2.80;99.90;;;;;;5042689;28;20128;-76
2023/03/05 02:18:41;;;;;;;9.23;2.65;;;2.70;99.90;;;;;;5040497;28;20052;-76
2023/03/05 02:21:14;;;;;;;7.93;2.20;;;2.80;99.90;;;;;;5039300;28;20416;-76
2023/03/05 02:23:42;;;;;;;9.13;2.47;;;2.80;99.90;;;;;;5038597;28;20033;-75
2023/03/05 02:26:15;;;;;;;19.42;3.25;;;2.80;99.90;;;;;;5036995;28;20508;-75
2023/03/05 02:28:48;;;;;;;;;;;2.80;99.90;;;;;;5050262;28;20040;-75
2023/03/05 02:31:26;;;;;;;12.02;3.03;;;2.70;99.90;;;;;;5045246;28;19913;-76
2023/03/05 02:33:59;;;;;;;8.40;2.35;;;2.70;99.90;;;;;;5047661;28;20451;-75
2023/03/05 02:36:35;;;;;;;12.30;2.88;;;2.70;99.90;;;;;;5052791;28;20029;-75
2023/03/05 02:39:11;;;;;;;9.38;2.22;;;2.70;99.90;;;;;;5057980;28;20032;-75
2023/03/05 02:41:50;;;;;;;8.30;2.10;;;2.70;99.90;;;;;;5042237;28;20036;-75
2023/03/05 02:44:28;;;;;;;6.95;2.08;;;2.60;99.90;;;;;;5037311;28;20131;-75
2023/03/05 02:46:58;;;;;;;8.43;2.13;;;2.60;99.90;;;;;;5036728;28;20075;-75
2023/03/05 02:49:35;;;;;;;7.88;2.05;;;2.60;99.90;;;;;;5042087;28;20045;-75
2023/03/05 02:52:08;;;;;;;9.52;1.77;;;2.60;99.90;;;;;;5037979;28;20143;-75
2023/03/05 02:54:37;;;;;;;;;;;2.60;99.90;;;;;;5043246;28;20044;-76
2023/03/05 02:57:04;;;;;;;5.30;2.10;;;2.60;99.90;;;;;;5039670;28;20610;-76
2023/03/05 02:59:34;;;;;;;5.78;1.60;;;2.60;99.90;;;;;;5044707;28;20025;-75
2023/03/05 03:02:06;;;;;;;5.03;1.80;;;2.60;99.90;;;;;;5054549;28;20056;-76
2023/03/05 03:04:37;;;;;;;4.45;1.88;;;2.60;99.90;;;;;;5041975;28;20028;-76
2023/03/05 03:07:04;;;;;;;4.10;1.77;;;2.50;99.90;;;;;;5043120;28;20041;-75
2023/03/05 03:09:39;;;;;;;6.82;1.90;;;2.50;99.90;;;;;;5038680;28;20108;-76
2023/03/05 03:12:16;;;;;;;5.03;1.83;;;2.50;99.90;;;;;;5042414;28;20051;-75
2023/03/05 03:14:58;;;;;;;6.97;1.85;;;2.50;99.90;;;;;;5049918;28;20331;-76
2023/03/05 03:17:34;;;;;;;8.43;2.00;;;2.50;99.90;;;;;;5040880;28;20033;-76
2023/03/05 03:20:07;;;;;;;6.50;2.00;;;2.50;99.90;;;;;;5041594;28;20053;-76
2023/03/05 03:22:34;;;;;;;;;;;2.40;99.90;;;;;;5040816;28;20112;-76
2023/03/05 03:25:06;;;;;;;5.15;1.85;;;2.40;99.90;;;;;;5041698;28;20011;-75
2023/03/05 03:27:38;;;;;;;11.38;2.22;;;2.40;99.90;;;;;;5042361;28;20056;-76
2023/03/05 03:30:12;;;;;;;8.30;2.15;;;2.40;99.90;;;;;;5044555;28;20041;-76
2023/03/05 03:32:46;;;;;;;5.80;1.77;;;2.40;99.90;;;;;;5036914;28;20041;-74
2023/03/05 03:35:17;;;;;;;6.00;1.77;;;2.40;99.90;;;;;;5032977;28;20022;-75
2023/03/05 03:37:52;;;;;;;9.57;2.10;;;2.40;99.90;;;;;;5034637;28;20139;-75
2023/03/05 03:40:21;;;;;;;7.30;1.90;;;2.40;99.90;;;;;;5032424;28;20029;-75
2023/03/05 03:42:57;;;;;;;6.43;1.90;;;2.40;99.90;;;;;;5040662;28;20048;-75
2023/03/05 03:45:35;;;;;;;4.95;1.73;;;2.40;99.90;;;;;;5045177;28;20037;-75
2023/03/05 03:48:05;;;;;;;5.75;1.60;;;2.40;99.90;;;;;;5042591;28;20049;-75
2023/03/05 03:50:31;;;;;;;7.38;1.52;;;2.40;99.90;;;;;;5039465;28;20022;-76
2023/03/05 03:53:05;;;;;;;6.35;1.85;;;2.40;99.90;;;;;;5039128;28;20035;-75
2023/03/05 03:55:40;;;;;;;5.47;1.90;;;2.40;99.90;;;;;;5045323;28;20041;-75
2023/03/05 03:58:09;;;;;;;8.75;2.35;;;2.40;99.90;;;;;;5043293;28;20038;-76
2023/03/05 04:00:42;;;;;;;7.53;2.28;;;2.40;99.90;;;;;;5059852;28;20069;-75
2023/03/05 04:03:10;;;;;;;7.63;1.70;;;2.40;99.90;;;;;;5053570;28;20035;-76
2023/03/05 04:05:41;;;;;;;8.10;1.80;;;2.40;99.90;;;;;;5039012;28;20048;-75
2023/03/05 04:08:11;;;;;;;5.20;1.77;;;2.50;99.90;;;;;;5035316;28;20060;-75
2023/03/05 04:10:48;;;;;;;5.22;1.83;;;2.50;99.90;;;;;;5048239;28;20116;-75
2023/03/05 04:13:17;;;;;;;5.55;2.00;;;2.50;99.90;;;;;;5044434;28;20541;-76
2023/03/05 04:15:52;;;;;;;10.35;2.08;;;2.50;99.90;;;;;;5039473;28;20037;-76
2023/03/05 04:18:20;;;;;;;6.18;1.85;;;2.50;99.90;;;;;;5045194;28;20080;-76
2023/03/05 04:20:54;;;;;;;4.05;1.45;;;2.50;99.90;;;;;;4884134;28;4510313;-76
2023/03/05 04:23:21;;;;;;;4.63;2.03;;;2.50;99.90;;;;;;5032409;28;20607;-76
2023/03/05 04:25:55;;;;;;;5.78;1.42;;;2.50;99.90;;;;;;5042950;28;20044;-76
2023/03/05 04:28:23;;;;;;;3.72;1.30;;;2.50;99.90;;;;;;5044151;28;20053;-76
2023/03/05 04:30:56;;;;;;;7.20;1.10;;;2.50;99.90;;;;;;5044748;28;20477;-75
2023/03/05 04:33:25;;;;;;;7.20;1.58;;;2.50;99.90;;;;;;5042468;28;20037;-75
2023/03/05 04:35:54;;;;;;;6.70;1.70;;;2.50;99.90;;;;;;5043729;28;20037;-76
2023/03/05 04:38:22;;;;;;;6.63;1.48;;;2.50;99.90;;;;;;5045933;28;20151;-76
2023/03/05 04:40:49;;;;;;;6.20;1.38;;;2.50;99.90;;;;;;5040815;28;20033;-75
2023/03/05 04:43:16;;;;;;;3.92;1.40;;;2.50;99.90;;;;;;5040325;28;20067;-74
2023/03/05 04:45:51;;;;;;;4.40;1.40;;;2.50;99.90;;;;;;5036970;28;20116;-74
2023/03/05 04:48:24;;;;;;;2.97;1.20;;;2.50;99.90;;;;;;5041193;28;20410;-76
2023/03/05 04:50:56;;;;;;;5.72;1.60;;;2.50;99.90;;;;;;5040916;28;20087;-75
2023/03/05 04:53:27;;;;;;;4.68;1.30;;;2.50;99.90;;;;;;5040784;28;20123;-75
2023/03/05 04:56:00;;;;;;;3.17;1.33;;;2.50;99.90;;;;;;5045217;28;20020;-75
2023/03/05 04:58:30;;;;;;;3.63;1.13;;;2.50;99.90;;;;;;5042514;28;20066;-74
2023/03/05 05:01:02;;;;;;;3.72;1.27;;;2.50;99.90;;;;;;5039046;28;20052;-75
2023/03/05 05:03:33;;;;;;;2.70;0.97;;;2.50;99.90;;;;;;5041630;28;20021;-75
2023/03/05 05:06:07;;;;;;;4.20;1.40;;;2.50;99.90;;;;;;5049759;28;20035;-75
2023/03/05 05:08:35;;;;;;;4.78;1.40;;;2.50;99.90;;;;;;5056317;28;20029;-75
2023/03/05 05:11:11;;;;;;;4.70;1.52;;;2.50;99.90;;;;;;5046908;28;20039;-75
2023/03/05 05:13:39;;;;;;;1.95;0.90;;;2.50;99.90;;;;;;5050258;28;20632;-75
2023/03/05 05:16:14;;;;;;;2.58;1.20;;;2.50;99.90;;;;;;5052692;28;20029;-75
2023/03/05 05:18:41;;;;;;;4.50;1.42;;;2.50;99.90;;;;;;5038145;28;20521;-75
2023/03/05 05:21:20;;;;;;;4.72;1.75;;;3.00;99.90;;;;;;5046201;28;20044;-75
2023/03/05 05:23:46;;;;;;;4.55;1.00;;;2.50;99.90;;;;;;5044929;28;20044;-75
2023/03/05 05:26:18;;;;;;;4.88;1.58;;;2.50;99.90;;;;;;5045043;28;20049;-75
2023/03/05 05:28:44;;;;;;;3.05;1.40;;;2.50;99.90;;;;;;5038466;28;20115;-75
2023/03/05 05:31:20;;;;;;;4.70;1.38;;;2.40;99.90;;;;;;5045786;28;20033;-75
2023/03/05 05:33:47;;;;;;;5.43;1.55;;;2.50;99.90;;;;;;5046085;28;20038;-75
2023/03/05 05:36:21;;;;;;;2.97;1.50;;;2.50;99.90;;;;;;5043438;28;20485;-76
2023/03/05 05:38:48;;;;;;;5.80;1.83;;;2.40;99.90;;;;;;5048749;28;20021;-76
2023/03/05 05:41:27;;;;;;;6.03;1.52;;;2.50;99.90;;;;;;5043748;28;20079;-76
2023/03/05 05:43:58;;;;;;;6.45;1.63;;;2.50;99.90;;;;;;5042452;28;20390;-76
2023/03/05 05:46:27;;;;;;;9.10;2.05;;;2.40;99.90;;;;;;5041346;28;20029;-76
2023/03/05 05:48:56;;;;;;;3.70;1.63;;;2.50;99.90;;;;;;5045415;28;20037;-76
2023/03/05 05:51:32;;;;;;;4.13;1.80;;;2.50;99.90;;;;;;5042070;28;20124;-76
2023/03/05 05:54:00;;;;;;;4.13;1.63;;;2.50;99.90;;;;;;5047095;28;20033;-76
2023/03/05 05:56:30;;;;;;;4.28;1.58;;;2.40;99.90;;;;;;5037557;28;20026;-76
2023/03/05 05:58:57;;;;;;;3.72;1.75;;;2.40;99.90;;;;;;5040681;28;20029;-75
2023/03/05 06:01:31;;;;;;;7.40;3.70;;;2.40;99.90;;;;;;5053682;28;20028;-76
2023/03/05 06:03:59;;;;;;;13.52;6.13;;;2.40;99.90;;;;;;5044562;28;20029;-75
2023/03/05 06:06:32;;;;;;;7.57;4.10;;;2.50;99.90;;;;;;5057367;28;20087;-76
2023/03/05 06:09:01;;;;;;;7.93;3.63;;;2.50;99.90;;;;;;5040301;28;20044;-76
2023/03/05 06:11:32;;;;;;;6.43;2.85;;;2.50;99.90;;;;;;5035693;28;20142;-76
2023/03/05 06:14:01;;;;;;;6.65;2.58;;;2.50;99.90;;;;;;5047191;28;20020;-76
2023/03/05 06:16:27;;;;;;;7.53;1.85;;;2.50;99.90;;;;;;5046012;28;20593;-75
2023/03/05 06:18:58;;;;;;;5.80;1.50;;;2.50;99.90;;;;;;5045271;28;20033;-76
2023/03/05 06:21:33;;;;;;;4.32;1.45;;;2.50;99.90;;;;;;5042333;28;21033;-75
2023/03/05 06:24:02;;;;;;;5.15;1.65;;;2.50;99.90;;;;;;5036009;28;20059;-76
2023/03/05 06:26:35;;;;;;;6.03;1.90;;;2.50;99.90;;;;;;5059549;28;20054;-75
2023/03/05 06:29:03;;;;;;;5.47;2.00;;;2.50;99.90;;;;;;5038051;28;20559;-76
2023/03/05 06:31:39;;;;;;;8.65;2.08;;;2.50;99.90;;;;;;5036751;28;20041;-76
2023/03/05 06:34:05;;;;;;;6.95;2.28;;;2.50;99.90;;;;;;5038720;28;20053;-76
2023/03/05 06:36:39;;;;;;;8.75;2.90;;;2.50;99.90;;;;;;5036318;28;20532;-76
2023/03/05 06:39:06;;;;;;;7.78;3.05;;;2.50;99.90;;;;;;5045718;28;20041;-76
2023/03/05 06:41:39;;;;;;;9.27;6.07;;;2.50;99.90;;;;;;5045042;28;20596;-76
2023/03/05 06:44:06;;;;;;;10.80;6.82;;;2.50;99.90;;;;;;5040825;28;20499;-76
2023/03/05 06:46:40;;;;;;;12.73;6.88;;;2.50;99.90;;;;;;5043772;28;20037;-76
2023/03/05 06:49:09;;;;;;;12.98;6.70;;;2.50;99.90;;;;;;5044605;28;20429;-76
2023/03/05 06:51:41;;;;;;;11.80;2.20;;;2.60;99.90;;;;;;5040690;28;20386;-75
2023/03/05 06:54:13;;;;;;;5.35;2.08;;;2.50;99.90;;;;;;5044136;28;20033;-75
2023/03/05 06:56:46;;;;;;;8.85;2.35;;;2.50;99.90;;;;;;5055834;28;20459;-76
2023/03/05 06:59:16;;;;;;;7.25;3.05;;;2.50;99.90;;;;;;5035950;28;20124;-76
2023/03/05 07:01:43;;;;;;;7.93;3.20;;;2.60;99.90;;;;;;5036637;28;20036;-76
2023/03/05 07:04:16;;;;;;;6.85;2.53;;;2.60;99.90;;;;;;5048261;28;20028;-76
2023/03/05 07:06:47;;;;;;;6.85;2.80;;;2.70;99.90;;;;;;5050584;28;20036;-76
2023/03/05 07:09:15;;;;;;;5.40;2.50;;;2.80;99.90;;;;;;5049556;28;20025;-76
2023/03/05 07:11:49;;;;;;;8.20;2.72;;;2.80;99.90;;;;;;5038900;28;20040;-75
2023/03/05 07:14:22;;;;;;;6.35;2.45;;;2.90;99.90;;;;;;5038482;28;20036;-76
2023/03/05 07:16:57;;;;;;;6.15;2.58;;;2.90;99.90;;;;;;5033234;28;20082;-76
2023/03/05 07:19:27;;;;;;;7.55;3.10;;;2.90;99.90;;;;;;5041900;28;20119;-75
2023/03/05 07:22:01;;;;;;;7.38;2.75;;;3.00;99.90;;;;;;5038199;28;20053;-76
2023/03/05 07:24:28;;;;;;;7.20;2.97;;;3.00;99.90;;;;;;5029960;28;20025;-75
2023/03/05 07:27:04;;;;;;;6.31;2.74;;;3.10;99.90;;;;;;4631331;28;10002924;-74
2023/03/05 07:29:30;;;;;;;7.90;3.70;;;3.10;99.90;;;;;;5069521;28;20078;-77
2023/03/05 07:31:57;;;;;;;8.82;3.83;;;3.20;99.90;;;;;;5068337;28;20515;-77
2023/03/05 07:34:24;;;;;;;12.13;4.55;;;3.20;99.90;;;;;;5073758;28;20040;-76
2023/03/05 07:36:51;;;;;;;7.70;3.50;;;3.30;99.90;;;;;;5076152;28;20048;-81
2023/03/05 07:39:18;;;;;;;7.72;3.25;;;3.30;99.90;;;;;;5062976;28;20028;-76
2023/03/05 07:41:46;;;;;;;7.63;2.70;;;3.40;99.90;;;;;;5064852;28;20131;-75
2023/03/05 07:44:13;;;;;;;7.72;2.90;;;3.40;99.90;;;;;;5065375;28;20101;-75
2023/03/05 07:46:40;;;;;;;9.05;2.72;;;3.50;99.90;;;;;;5061195;28;20029;-74
2023/03/05 07:49:06;;;;;;;4.80;2.33;;;3.50;99.90;;;;;;5060843;28;20076;-75
2023/03/05 07:51:32;;;;;;;5.68;2.28;;;3.50;99.90;;;;;;5054307;28;20093;-75
2023/03/05 07:53:59;;;;;;;5.50;2.60;;;3.60;99.90;;;;;;5073849;28;20036;-75
2023/03/05 07:56:30;;;;;;;7.38;2.60;;;3.70;99.90;;;;;;5069429;28;20028;-75
2023/03/05 07:58:57;;;;;;;7.25;2.70;;;3.80;99.90;;;;;;5064592;28;20132;-75
2023/03/05 08:01:24;;;;;;;8.52;2.75;;;3.80;99.90;;;;;;5032980;28;20044;-75
2023/03/05 08:03:50;;;;;;;7.07;2.40;;;3.80;99.90;;;;;;5033455;28;20029;-75
2023/03/05 08:06:17;;;;;;;7.88;2.72;;;3.80;99.90;;;;;;5036075;28;20037;-76
2023/03/05 08:08:43;;;;;;;5.10;2.60;;;3.90;99.90;;;;;;5042445;28;20070;-73
2023/03/05 08:11:12;;;;;;;7.30;2.72;;;3.80;99.90;;;;;;5045223;28;20135;-73
2023/03/05 08:13:38;;;;;;;9.07;3.50;;;3.90;99.90;;;;;;5044969;28;20063;-76
2023/03/05 08:16:10;;;;;;;10.77;3.72;;;3.90;99.90;;;;;;5047546;28;20040;-76
2023/03/05 08:18:37;;;;;;;9.35;2.50;;;4.00;99.90;;;;;;5040732;28;20022;-75
2023/03/05 08:21:04;;;;;;;6.32;2.92;;;4.00;99.90;;;;;;5046718;28;20570;-72
2023/03/05 08:23:33;;;;;;;8.73;3.45;;;4.00;99.90;;;;;;5036452;28;20052;-75
2023/03/05 08:26:00;;;;;;;5.97;2.45;;;4.00;99.90;;;;;;5048060;28;20037;-75
2023/03/05 08:28:27;;;;;;;5.68;2.40;;;4.00;99.90;;;;;;5058998;28;20038;-75
2023/03/05 08:30:54;;;;;;;4.95;2.53;;;4.00;99.90;;;;;;5044476;28;20041;-72
2023/03/05 08:33:21;;;;;;;7.63;3.00;;;4.00;99.90;;;;;;5035530;28;20539;-73
2023/03/05 08:35:48;;;;;;;8.48;2.92;;;4.00;99.90;;;;;;5058139;28;20033;-75
2023/03/05 08:38:19;;;;;;;8.63;2.80;;;3.90;99.90;;;;;;5047377;28;20062;-75
2023/03/05 08:40:48;;;;;;;7.05;2.75;;;;;;;;;;5042905;28;20041;-77
2023/03/05 08:43:20;;;;;;;5.20;2.70;;;3.80;99.90;;;;;;5037692;28;20115;-76
2023/03/05 08:45:50;;;;;;;7.53;3.15;;;3.70;99.90;;;;;;5048958;28;20037;-76
2023/03/05 08:48:22;;;;;;;9.60;2.90;;;3.70;99.90;;;;;;5040794;28;20044;-76
2023/03/05 08:50:53;;;;;;;7.28;2.70;;;3.60;99.90;;;;;;5041396;28;20025;-76
2023/03/05 08:53:21;;;;;;;5.65;3.20;;;3.60;99.90;;;;;;5045411;28;20151;-75
2023/03/05 08:56:02;;;;;;;5.68;2.45;;;3.50;99.90;;;;;;5043703;28;20166;-76
2023/03/05 08:58:35;;;;;;;5.00;2.78;;;3.50;99.90;;;;;;5047531;28;20029;-76
2023/03/05 09:01:06;;;;;;;5.82;2.75;;;3.60;99.90;;;;;;5046546;28;20025;-76
2023/03/05 09:03:36;;;;;;;4.50;2.33;;;3.80;99.90;;;;;;5043583;28;20041;-75
2023/03/05 09:06:06;;;;;;;8.00;2.85;;;3.90;99.90;;;;;;5047430;28;20068;-76
2023/03/05 09:08:40;;;;;;;7.00;2.92;;;4.00;99.90;;;;;;5043679;28;20039;-76
2023/03/05 09:11:16;;;;;;;9.55;3.05;;;4.20;99.90;;;;;;5046099;28;20033;-75
2023/03/05 09:13:48;;;;;;;7.60;3.00;;;4.30;99.90;;;;;;5050560;28;20041;-77
2023/03/05 09:16:21;;;;;;;6.05;3.20;;;4.40;99.90;;;;;;5047729;28;20431;-76
2023/03/05 09:18:53;;;;;;;11.13;4.68;;;4.50;99.90;;;;;;5046016;28;20060;-76
2023/03/05 09:21:26;;;;;;;6.38;2.88;;;4.60;99.90;;;;;;5037755;28;20044;-76
2023/03/05 09:24:00;;;;;;;7.67;3.10;;;4.70;99.90;;;;;;5030489;28;20025;-77
2023/03/05 09:26:35;;;;;;;7.80;2.90;;;4.70;99.90;;;;;;5030556;28;20032;-76
2023/03/05 09:29:07;;;;;;;5.28;3.10;;;4.70;99.90;;;;;;5036705;28;20033;-77
2023/03/05 09:31:42;;;;;;;4.82;2.53;;;4.80;99.90;;;;;;5039105;28;20034;-77
2023/03/05 09:34:15;;;;;;;4.97;2.95;;;4.80;99.90;;;;;;5050256;28;20565;-76
2023/03/05 09:36:44;;;;;;;4.38;2.67;;;4.90;99.90;;;;;;5048379;28;20414;-77
2023/03/05 09:39:19;;;;;;;4.18;2.35;;;4.80;99.90;;;;;;5046665;28;20041;-76
2023/03/05 09:42:10;;;;;;;7.63;3.47;;;4.80;99.90;;;;;;5038604;28;20493;-76
2023/03/05 09:45:02;;;;;;;4.35;2.63;;;4.70;99.90;;;;;;5049427;28;20040;-76
2023/03/05 09:47:56;;;;;;;5.93;2.85;;;4.70;99.90;;;;;;5038323;28;20064;-76
2023/03/05 09:50:37;;;;;;;5.00;2.97;;;4.60;99.90;;;;;;5045213;28;20520;-76
2023/03/05 09:53:43;;;;;;;6.95;4.20;;;4.60;99.90;;;;;;5049506;28;20064;-76
2023/03/05 09:56:26;;;;;;;7.60;3.30;;;4.60;99.90;;;;;;5037284;28;20067;-76
2023/03/05 09:58:58;;;;;;;2.97;1.80;;;4.70;99.90;;;;;;5040206;28;20021;-76
2023/03/05 10:01:38;;;;;;;3.73;2.00;;;4.80;99.90;;;;;;5042040;28;20295;-77
2023/03/05 10:04:56;;;;;;;3.42;2.00;;;5.00;99.90;;;;;;5042595;28;20481;-76
2023/03/05 10:07:41;;;;;;;8.63;2.60;;;5.20;99.90;;;;;;4995800;28;20582;-76
2023/03/05 10:10:16;;;;;;;4.13;1.80;;;5.30;99.90;;;;;;5047002;28;20075;-76
2023/03/05 10:12:51;;;;;;;3.90;2.03;;;5.50;99.90;;;;;;5040180;28;20124;-76
2023/03/05 10:15:36;;;;;;;4.55;2.10;;;5.50;99.90;;;;;;5029877;28;20051;-76
2023/03/05 10:18:46;;;;;;;6.00;2.90;;;5.50;99.90;;;;;;5033241;28;20559;-76
2023/03/05 10:21:30;;;;;;;5.65;3.75;;;5.50;99.90;;;;;;5022844;28;20120;-76
2023/03/05 10:24:40;;;;;;;5.85;2.50;;;5.40;99.90;;;;;;5035476;28;20042;-76
2023/03/05 10:27:25;;;;;;;5.70;2.88;;;5.20;99.90;;;;;;5008036;28;20102;-76
2023/03/05 10:30:18;;;;;;;5.43;2.70;;;5.10;99.90;;;;;;5047297;28;20450;-76
2023/03/05 10:33:04;;;;;;;3.60;1.85;;;5.00;99.90;;;;;;5032473;28;20740;-76
2023/03/05 10:35:45;;;;;;;6.90;2.30;;;5.00;99.90;;;;;;5046484;28;20086;-76
2023/03/05 10:38:37;;;;;;;4.15;2.70;;;5.00;99.90;;;;;;5032382;28;20029;-75
2023/03/05 10:41:36;;;;;;;3.85;2.60;;;5.00;99.90;;;;;;5041213;28;20041;-76
2023/03/05 10:44:24;;;;;;;3.65;2.28;;;5.10;99.90;;;;;;5045744;28;20055;-76
2023/03/05 10:46:59;;;;;;;3.83;2.30;;;5.10;99.90;;;;;;5048936;28;20404;-77
2023/03/05 10:49:33;;;;;;;2.75;1.90;;;5.00;99.90;;;;;;5043331;28;20034;-76
2023/03/05 10:52:20;;;;;;;3.50;1.90;;;5.00;99.90;;;;;;5028917;28;20083;-76
2023/03/05 10:54:46;;;;;;;3.17;2.30;;;5.00;99.90;;;;;;5042318;28;20060;-76
2023/03/05 10:57:22;;;;;;;4.13;2.88;;;4.90;99.90;;;;;;5035864;28;20033;-76
2023/03/05 10:59:57;;;;;;;4.28;2.13;;;4.90;99.90;;;;;;5048791;28;20076;-76
2023/03/05 11:02:24;;;;;;;4.25;2.28;;;4.90;99.90;;;;;;5045110;28;20025;-76
2023/03/05 11:04:58;;;;;;;3.72;2.63;;;4.90;99.90;;;;;;5042429;28;20150;-75
2023/03/05 11:07:31;;;;;;;4.55;2.80;;;4.80;99.90;;;;;;5035533;28;20112;-75
2023/03/05 11:10:04;;;;;;;7.35;4.63;;;4.80;99.90;;;;;;5037953;28;20538;-76
2023/03/05 11:12:39;;;;;;;11.38;6.57;;;4.70;99.90;;;;;;5037734;28;20124;-76
2023/03/05 11:15:13;;;;;;;4.85;3.60;;;4.70;99.90;;;;;;5044505;28;20114;-76
2023/03/05 11:18:03;;;;;;;5.13;2.70;;;4.70;99.90;;;;;;5044288;28;20085;-76
2023/03/05 11:20:34;;;;;;;3.50;2.20;;;4.60;99.90;;;;;;5045423;28;20116;-76
2023/03/05 11:23:23;;;;;;;4.60;2.10;;;4.50;99.90;;;;;;5043603;28;20496;-75
2023/03/05 11:26:00;;;;;;;2.17;1.80;;;4.40;99.90;;;;;;5041670;28;20036;-77
2023/03/05 11:28:55;;;;;;;2.65;2.22;;;4.30;99.90;;;;;;5039193;28;20040;-76
2023/03/05 11:31:29;;;;;;;4.78;2.80;;;;;;;;;;5040892;28;20539;-76
2023/03/05 11:34:00;;;;;;;3.80;2.30;;;3.90;99.90;;;;;;5038849;28;20067;-76
2023/03/05 11:36:37;;;;;;;5.80;2.55;;;;;;;;;;5039774;28;20653;-75
2023/03/05 11:39:06;;;;;;;9.38;4.57;;;;;;;;;;5033677;28;20428;-72
2023/03/05 11:41:39;;;;;;;6.97;4.10;;;3.40;99.90;;;;;;5042395;28;20107;-72
2023/03/05 11:44:17;;;;;;;7.70;1.95;;;3.30;99.90;;;;;;5032760;28;20032;-72
2023/03/05 11:46:50;;;;;;;4.28;2.20;;;3.10;99.90;;;;;;5043753;28;20591;-72
2023/03/05 11:49:26;;;;;;;5.05;2.85;;;3.00;99.90;;;;;;5045280;28;20047;-73
2023/03/05 11:52:23;;;;;;;9.13;4.18;;;3.10;99.90;;;;;;5045603;28;20045;-74
2023/03/05 11:55:17;;;;;;;7.35;3.00;;;3.20;99.90;;;;;;5052961;28;20523;-74
2023/03/05 11:58:10;;;;;;;5.00;3.28;;;3.40;99.90;;;;;;5053460;28;20035;-74
2023/03/05 12:00:40;;;;;;;2.70;1.88;;;3.60;99.90;;;;;;5052379;28;20044;-74
2023/03/05 12:03:23;;;;;;;2.95;2.38;;;3.80;99.90;;;;;;5046754;28;20036;-74
2023/03/05 12:06:28;;;;;;;8.48;2.17;;;3.90;99.90;;;;;;5039158;28;20036;-74
2023/03/05 12:09:03;;;;;;;4.07;2.90;;;4.10;99.90;;;;;;5042765;28;20029;-73
2023/03/05 12:11:37;;;;;;;4.45;2.55;;;4.30;99.90;;;;;;5045118;28;20036;-74
2023/03/05 12:14:22;;;;;;;7.93;3.53;;;4.40;99.90;;;;;;5050156;28;20156;-73
2023/03/05 12:17:03;;;;;;;6.07;4.43;;;4.40;99.90;;;;;;5056830;28;20066;-73
2023/03/05 12:19:51;;;;;;;5.95;4.10;;;4.50;99.90;;;;;;5041786;28;20029;-73
2023/03/05 12:22:30;;;;;;;4.35;2.92;;;4.60;99.90;;;;;;5046331;28;20044;-74
2023/03/05 12:25:25;;;;;;;4.88;3.50;;;4.70;99.90;;;;;;5044672;28;20029;-73
2023/03/05 12:27:55;;;;;;;5.25;3.20;;;4.70;99.90;;;;;;5050743;28;20521;-73
2023/03/05 12:30:33;;;;;;;4.35;3.00;;;4.80;99.90;;;;;;5039129;28;20048;-73
2023/03/05 12:33:04;;;;;;;4.55;3.60;;;4.90;99.90;;;;;;5045842;28;20041;-72
2023/03/05 12:35:39;;;;;;;4.97;3.33;;;5.00;99.90;;;;;;5058976;28;20038;-73
2023/03/05 12:38:19;;;;;;;6.43;3.35;;;5.10;99.90;;;;;;5043694;28;20107;-73
2023/03/05 12:40:50;;;;;;;3.88;2.90;;;5.20;99.90;;;;;;5045473;28;20651;-74
2023/03/05 12:43:37;;;;;;;4.75;3.15;;;5.30;99.90;;;;;;5040801;28;20049;-74
2023/03/05 12:46:26;;;;;;;4.30;2.85;;;5.40;99.90;;;;;;5039607;28;20059;-74
2023/03/05 12:49:21;;;;;;;4.55;2.50;;;5.50;99.90;;;;;;5054672;28;20075;-75
2023/03/05 12:51:59;;;;;;;4.97;2.95;;;5.50;99.90;;;;;;5056504;28;20123;-75
2023/03/05 12:54:34;;;;;;;7.30;3.30;;;5.60;99.90;;;;;;5056289;28;20396;-75
2023/03/05 12:57:18;;;;;;;6.55;4.25;;;5.60;99.90;;;;;;5046067;28;20025;-75
2023/03/05 12:59:54;;;;;;;7.40;4.65;;;5.60;99.90;;;;;;5049424;28;20037;-74
2023/03/05 13:02:38;;;;;;;5.28;3.80;;;5.70;99.90;;;;;;5038756;28;20022;-74
2023/03/05 13:05:22;;;;;;;4.30;2.80;;;5.60;99.90;;;;;;5038763;28;20041;-75
2023/03/05 13:07:51;;;;;;;5.93;2.95;;;5.60;99.90;;;;;;5043499;28;20037;-74
2023/03/05 13:10:29;;;;;;;4.85;2.60;;;5.60;99.90;;;;;;5045887;28;20021;-74
2023/03/05 13:13:01;;;;;;;7.00;2.95;;;5.60;99.90;;;;;;5045714;28;20037;-74
2023/03/05 13:15:34;;;;;;;3.08;2.22;;;5.60;99.90;;;;;;5048973;28;20393;-74
2023/03/05 13:18:07;;;;;;;5.50;1.67;;;5.60;99.90;;;;;;5045321;28;20044;-74
2023/03/05 13:20:42;;;;;;;2.70;1.92;;;5.60;99.90;;;;;;5056338;28;20039;-74
2023/03/05 13:23:29;;;;;;;3.25;2.20;;;5.60;99.90;;;;;;5048277;28;20036;-74
2023/03/05 13:26:18;;;;;;;4.65;2.60;;;5.60;99.90;;;;;;5038453;28;20031;-73
2023/03/05 13:29:03;;;;;;;4.07;2.35;;;;;;;;;;5047443;28;20039;-73
2023/03/05 13:31:31;;;;;;;3.70;2.60;;;5.50;99.90;;;;;;5036209;28;20053;-72
2023/03/05 13:34:06;;;;;;;3.75;2.50;;;5.40;99.90;;;;;;5043783;28;20588;-72
2023/03/05 13:36:33;;;;;;;2.78;2.17;;;;;;;;;;4685159;28;9999967;-74